createdAt,value
2017-11-30T00:01:12.325Z,21.65
2017-11-30T00:03:41.522Z,21.35
2017-11-30T00:06:10.688Z,24.12
2017-11-30T00:08:39.827Z,21.10
2017-11-30T00:11:09.757Z,23.58
2017-11-30T00:13:40.054Z,22.05
2017-11-30T00:16:09.263Z,22.23
2017-11-30T00:18:38.484Z,20.60
2017-11-30T00:21:07.856Z,21.12
2017-11-30T00:23:37.809Z,22.37
2017-11-30T00:26:06.969Z,21.48
2017-11-30T00:28:36.997Z,24.23
2017-11-30T00:31:06.100Z,21.70
2017-11-30T00:33:35.246Z,21.00
2017-11-30T00:36:04.433Z,21.20
2017-11-30T00:38:33.523Z,22.10
2017-11-30T00:41:02.670Z,22.58
2017-11-30T00:43:33.097Z,22.75
2017-11-30T00:46:02.223Z,24.67
2017-11-30T00:48:32.198Z,22.62
2017-11-30T00:51:01.496Z,25.42
2017-11-30T00:53:30.649Z,24.17
2017-11-30T00:55:59.744Z,24.50
2017-11-30T00:58:28.867Z,25.73
2017-11-30T01:00:57.966Z,26.52
2017-11-30T01:03:27.059Z,24.33
2017-11-30T01:05:56.211Z,22.52
2017-11-30T01:08:26.081Z,21.85
2017-11-30T01:10:55.184Z,20.67
2017-11-30T01:13:24.342Z,21.20
2017-11-30T01:15:53.442Z,23.55
2017-11-30T01:18:22.571Z,22.65
2017-11-30T01:20:52.916Z,24.42
2017-11-30T01:23:23.341Z,21.35
2017-11-30T01:25:52.463Z,20.77
2017-11-30T01:28:22.454Z,19.75
2017-11-30T01:30:51.552Z,19.55
2017-11-30T01:33:20.921Z,17.75
2017-11-30T01:35:50.863Z,19.73
2017-11-30T01:38:20.028Z,20.50
2017-11-30T01:40:49.128Z,19.77
2017-11-30T01:43:18.654Z,20.10
2017-11-30T01:45:47.769Z,20.90
2017-11-30T01:48:16.882Z,15.88
2017-11-30T01:50:46.081Z,17.40
2017-11-30T01:53:15.191Z,17.55
2017-11-30T01:55:44.363Z,18.20
2017-11-30T01:58:13.529Z,19.95
2017-11-30T02:00:42.780Z,18.90
2017-11-30T02:03:11.975Z,17.83
2017-11-30T02:05:41.254Z,19.70
2017-11-30T02:08:10.403Z,19.65
2017-11-30T02:10:39.925Z,17.98
2017-11-30T02:13:09.078Z,19.42
2017-11-30T02:15:38.197Z,19.40
2017-11-30T02:18:07.285Z,18.20
2017-11-30T02:20:37.798Z,17.52
2017-11-30T02:23:06.910Z,18.12
2017-11-30T02:25:36.040Z,17.02
2017-11-30T02:28:05.257Z,18.10
2017-11-30T02:30:34.358Z,20.20
2017-11-30T02:33:03.526Z,20.55
2017-11-30T02:35:34.009Z,21.52
2017-11-30T02:38:03.742Z,17.85
2017-11-30T02:40:32.970Z,18.77
2017-11-30T02:43:02.198Z,21.15
2017-11-30T02:45:32.097Z,19.55
2017-11-30T02:48:01.283Z,19.00
2017-11-30T02:50:31.225Z,20.25
2017-11-30T02:53:00.336Z,20.62
2017-11-30T02:55:29.514Z,17.67
2017-11-30T02:57:58.734Z,18.83
2017-11-30T03:00:27.855Z,18.25
2017-11-30T03:02:56.991Z,23.15
2017-11-30T03:05:27.781Z,20.85
2017-11-30T03:07:56.967Z,19.60
2017-11-30T03:10:26.860Z,19.15
2017-11-30T03:12:55.980Z,18.92
2017-11-30T03:15:25.062Z,17.75
2017-11-30T03:17:54.157Z,18.40
2017-11-30T03:20:23.681Z,21.30
2017-11-30T03:22:52.769Z,23.35
2017-11-30T03:25:21.860Z,18.80
2017-11-30T03:27:52.238Z,19.08
2017-11-30T03:30:21.366Z,19.40
2017-11-30T03:32:51.248Z,18.87
2017-11-30T03:35:21.178Z,16.73
2017-11-30T03:37:51.490Z,19.73
2017-11-30T03:40:20.629Z,15.27
2017-11-30T03:42:50.059Z,16.35
2017-11-30T03:45:19.167Z,16.90
2017-11-30T03:47:48.315Z,15.32
2017-11-30T03:50:17.529Z,17.50
2017-11-30T03:52:46.733Z,16.50
2017-11-30T03:55:15.821Z,21.00
2017-11-30T03:57:45.007Z,16.73
2017-11-30T04:00:14.149Z,17.80
2017-11-30T04:02:43.293Z,17.37
2017-11-30T04:05:12.516Z,17.10
2017-11-30T04:07:41.705Z,16.50
2017-11-30T04:10:10.873Z,20.30
2017-11-30T04:12:40.181Z,19.20
2017-11-30T04:15:09.293Z,18.87
2017-11-30T04:17:38.470Z,15.75
2017-11-30T04:20:07.609Z,16.12
2017-11-30T04:22:36.731Z,14.82
2017-11-30T04:25:05.829Z,19.02
2017-11-30T04:27:34.998Z,16.25
2017-11-30T04:30:04.146Z,17.90
2017-11-30T04:32:33.236Z,16.02
2017-11-30T04:35:02.478Z,15.63
2017-11-30T04:37:31.584Z,15.88
2017-11-30T04:40:09.191Z,15.93
2017-11-30T04:42:38.285Z,13.82
2017-11-30T04:45:07.372Z,15.90
2017-11-30T04:47:37.340Z,15.68
2017-11-30T04:50:06.430Z,17.15
2017-11-30T04:52:35.524Z,15.75
2017-11-30T04:55:05.796Z,18.85
2017-11-30T04:57:34.903Z,15.85
2017-11-30T05:00:03.992Z,15.00
2017-11-30T05:02:33.226Z,15.32
2017-11-30T05:05:02.359Z,15.30
2017-11-30T05:07:31.445Z,16.20
2017-11-30T05:10:00.750Z,18.05
2017-11-30T05:12:29.925Z,17.10
2017-11-30T05:14:59.843Z,17.00
2017-11-30T05:17:30.643Z,16.45
2017-11-30T05:19:59.714Z,15.43
2017-11-30T05:22:29.616Z,17.37
2017-11-30T05:24:58.791Z,14.65
2017-11-30T05:27:27.942Z,15.80
2017-11-30T05:29:57.803Z,14.68
2017-11-30T05:32:27.013Z,15.95
2017-11-30T05:34:56.109Z,15.57
2017-11-30T05:37:25.945Z,15.80
2017-11-30T05:39:55.879Z,15.45
2017-11-30T05:42:25.065Z,17.77
2017-11-30T05:44:54.945Z,17.52
2017-11-30T05:47:24.108Z,17.10
2017-11-30T05:49:53.191Z,20.10
2017-11-30T05:52:22.308Z,20.30
2017-11-30T05:54:52.682Z,19.25
2017-11-30T05:57:21.782Z,21.67
2017-11-30T05:59:51.276Z,23.55
2017-11-30T06:02:21.022Z,23.08
2017-11-30T06:04:50.221Z,24.37
2017-11-30T06:07:20.090Z,23.70
2017-11-30T06:09:49.254Z,24.17
2017-11-30T06:12:18.416Z,22.55
2017-11-30T06:14:47.535Z,24.02
2017-11-30T06:17:17.457Z,24.33
2017-11-30T06:19:46.639Z,25.45
2017-11-30T06:22:15.809Z,21.85
2017-11-30T06:24:46.391Z,25.80
2017-11-30T06:27:15.644Z,26.50
2017-11-30T06:29:45.506Z,24.87
2017-11-30T06:32:14.743Z,25.27
2017-11-30T06:34:43.893Z,25.75
2017-11-30T06:37:13.128Z,25.48
2017-11-30T06:39:43.103Z,27.90
2017-11-30T06:42:12.218Z,27.13
2017-11-30T06:44:42.158Z,24.77
2017-11-30T06:47:12.679Z,25.40
2017-11-30T06:49:41.867Z,25.35
2017-11-30T06:52:11.034Z,24.70
2017-11-30T06:54:40.243Z,25.27
2017-11-30T06:57:10.309Z,23.95
2017-11-30T06:59:39.848Z,26.80
2017-11-30T07:02:09.823Z,26.23
2017-11-30T07:04:38.980Z,25.35
2017-11-30T07:07:08.271Z,25.85
2017-11-30T07:09:38.142Z,25.25
2017-11-30T07:12:07.260Z,24.73
2017-11-30T07:14:36.438Z,24.42
2017-11-30T07:17:07.025Z,26.80
2017-11-30T07:19:36.165Z,24.92
2017-11-30T07:22:06.075Z,27.52
2017-11-30T07:24:36.025Z,28.08
2017-11-30T07:27:05.282Z,29.08
2017-11-30T07:29:34.467Z,29.48
2017-11-30T07:32:04.960Z,29.60
2017-11-30T07:34:34.056Z,27.25
2017-11-30T07:37:03.234Z,25.67
2017-11-30T07:39:33.152Z,27.92
2017-11-30T07:42:02.353Z,26.02
2017-11-30T07:44:32.281Z,26.33
2017-11-30T07:47:02.037Z,27.60
2017-11-30T07:49:31.193Z,28.35
2017-11-30T07:52:01.082Z,25.83
2017-11-30T07:54:30.292Z,27.00
2017-11-30T07:56:59.432Z,27.70
2017-11-30T07:59:28.559Z,28.80
2017-11-30T08:01:58.508Z,25.20
2017-11-30T08:04:28.461Z,27.95
2017-11-30T08:06:57.604Z,24.83
2017-11-30T08:09:27.524Z,26.00
2017-11-30T08:11:56.639Z,27.08
2017-11-30T08:14:25.849Z,25.70
2017-11-30T08:16:55.191Z,26.45
2017-11-30T08:19:24.295Z,25.45
2017-11-30T08:21:53.417Z,24.73
2017-11-30T08:24:22.685Z,25.50
2017-11-30T08:26:51.890Z,24.05
2017-11-30T08:29:21.023Z,23.12
2017-11-30T08:31:50.235Z,25.08
2017-11-30T08:34:19.409Z,23.12
2017-11-30T08:36:48.578Z,23.65
2017-11-30T08:39:17.971Z,24.37
2017-11-30T08:41:47.206Z,25.02
2017-11-30T08:44:17.194Z,24.83
2017-11-30T08:46:46.493Z,24.27
2017-11-30T08:49:15.896Z,22.85
2017-11-30T08:51:45.127Z,23.65
2017-11-30T08:54:14.392Z,24.75
2017-11-30T08:56:43.829Z,23.05
2017-11-30T08:59:13.029Z,23.38
2017-11-30T09:01:42.245Z,21.95
2017-11-30T09:04:11.529Z,24.15
2017-11-30T09:06:41.052Z,24.77
2017-11-30T09:09:10.317Z,23.30
2017-11-30T09:11:39.777Z,22.45
2017-11-30T09:14:08.965Z,24.05
2017-11-30T09:16:39.040Z,25.52
2017-11-30T09:19:08.280Z,22.08
2017-11-30T09:21:37.408Z,23.15
2017-11-30T09:24:06.672Z,21.25
2017-11-30T09:26:35.768Z,20.60
2017-11-30T09:29:05.783Z,22.05
2017-11-30T09:31:35.680Z,21.50
2017-11-30T09:34:04.788Z,21.42
2017-11-30T09:36:34.789Z,22.08
2017-11-30T09:39:04.086Z,19.67
2017-11-30T09:41:33.204Z,21.55
2017-11-30T09:44:02.299Z,20.37
2017-11-30T09:46:32.228Z,19.67
2017-11-30T09:49:01.330Z,21.73
2017-11-30T09:51:30.459Z,19.60
2017-11-30T09:53:59.570Z,19.85
2017-11-30T09:56:28.763Z,17.80
2017-11-30T09:58:57.847Z,18.40
2017-11-30T10:01:27.155Z,19.05
2017-11-30T10:03:56.297Z,13.93
2017-11-30T10:06:25.475Z,13.82
2017-11-30T10:08:55.594Z,14.68
2017-11-30T10:11:24.748Z,15.15
2017-11-30T10:13:53.864Z,14.23
2017-11-30T10:16:24.041Z,14.73
2017-11-30T10:18:54.042Z,14.57
2017-11-30T10:21:23.173Z,14.07
2017-11-30T10:23:52.830Z,16.42
2017-11-30T10:26:22.633Z,15.15
2017-11-30T10:28:51.758Z,15.43
2017-11-30T10:31:21.655Z,17.00
2017-11-30T10:33:50.859Z,19.52
2017-11-30T10:36:19.985Z,17.15
2017-11-30T10:38:49.214Z,19.50
2017-11-30T10:41:18.326Z,16.60
2017-11-30T10:43:48.263Z,14.65
2017-11-30T10:46:18.463Z,18.98
2017-11-30T10:48:47.692Z,19.20
2017-11-30T10:51:16.814Z,19.67
2017-11-30T10:53:46.877Z,16.37
2017-11-30T10:56:16.178Z,16.95
2017-11-30T10:58:46.029Z,14.40
2017-11-30T11:01:16.611Z,13.70
2017-11-30T11:03:46.560Z,14.90
2017-11-30T11:06:15.918Z,18.48
2017-11-30T11:08:46.044Z,14.95
2017-11-30T11:11:15.217Z,15.20
2017-11-30T11:13:44.426Z,12.98
2017-11-30T11:16:14.437Z,14.20
2017-11-30T11:18:43.753Z,13.10
2017-11-30T11:21:13.564Z,12.70
2017-11-30T11:23:43.928Z,14.57
2017-11-30T11:26:13.840Z,14.00
2017-11-30T11:28:43.323Z,14.57
2017-11-30T11:31:13.424Z,12.35
2017-11-30T11:33:43.329Z,13.95
2017-11-30T11:36:12.444Z,14.35
2017-11-30T11:38:42.192Z,11.75
2017-11-30T11:41:11.351Z,14.93
2017-11-30T11:43:41.597Z,12.50
2017-11-30T11:46:10.830Z,11.88
2017-11-30T11:48:40.746Z,14.10
2017-11-30T11:51:09.890Z,12.30
2017-11-30T11:53:39.139Z,12.90
2017-11-30T11:56:08.324Z,12.60
2017-11-30T11:58:37.447Z,13.43
2017-11-30T12:01:06.626Z,13.50
2017-11-30T12:03:35.850Z,13.13
2017-11-30T12:06:04.947Z,11.98
2017-11-30T12:08:34.165Z,11.18
2017-11-30T12:11:03.281Z,13.18
2017-11-30T12:13:32.437Z,12.02
2017-11-30T12:16:02.380Z,12.20
2017-11-30T12:18:31.574Z,12.90
2017-11-30T12:21:00.736Z,11.70
2017-11-30T12:23:29.881Z,13.30
2017-11-30T12:25:58.973Z,14.75
2017-11-30T12:28:28.077Z,12.63
2017-11-30T12:30:57.220Z,13.73
2017-11-30T12:33:26.386Z,14.60
2017-11-30T12:36:11.976Z,15.65
2017-11-30T12:38:42.126Z,14.60
2017-11-30T12:41:12.313Z,13.95
2017-11-30T12:43:42.644Z,16.65
2017-11-30T12:46:12.690Z,16.00
2017-11-30T12:48:42.888Z,15.45
2017-11-30T12:51:12.109Z,14.80
2017-11-30T12:53:42.411Z,14.23
2017-11-30T12:56:11.859Z,15.00
2017-11-30T12:58:41.908Z,14.40
2017-11-30T13:01:11.103Z,14.48
2017-11-30T13:03:41.806Z,14.30
2017-11-30T13:06:11.402Z,15.20
2017-11-30T13:08:41.492Z,14.20
2017-11-30T13:11:10.728Z,14.45
2017-11-30T13:13:40.581Z,14.00
2017-11-30T13:16:09.782Z,14.98
2017-11-30T13:18:39.006Z,13.98
2017-11-30T13:21:08.270Z,15.43
2017-11-30T13:23:37.650Z,15.52
2017-11-30T13:26:07.098Z,15.88
2017-11-30T13:28:36.216Z,14.93
2017-11-30T13:31:05.307Z,13.68
2017-11-30T13:33:34.562Z,16.00
2017-11-30T13:36:03.689Z,14.20
2017-11-30T13:38:32.826Z,16.90
2017-11-30T13:41:02.029Z,22.40
2017-11-30T13:43:31.305Z,14.43
2017-11-30T13:46:00.398Z,18.25
2017-11-30T13:48:29.596Z,16.45
2017-11-30T13:50:58.724Z,17.37
2017-11-30T13:53:28.611Z,14.87
2017-11-30T13:55:57.750Z,15.48
2017-11-30T13:58:26.905Z,17.30
2017-11-30T14:00:56.173Z,15.35
2017-11-30T14:03:25.366Z,17.45
2017-11-30T14:05:54.478Z,16.73
2017-11-30T14:08:23.567Z,16.17
2017-11-30T14:10:54.305Z,16.73
2017-11-30T14:13:23.383Z,15.75
2017-11-30T14:15:52.513Z,16.42
2017-11-30T14:18:21.635Z,18.87
2017-11-30T14:20:50.821Z,16.92
2017-11-30T14:23:20.006Z,17.70
2017-11-30T14:25:49.777Z,17.00
2017-11-30T14:28:19.146Z,16.62
2017-11-30T14:30:49.098Z,17.02
2017-11-30T14:33:18.317Z,16.20
2017-11-30T14:35:47.543Z,18.35
2017-11-30T14:38:16.709Z,18.52
2017-11-30T14:40:46.654Z,17.10
2017-11-30T14:43:15.776Z,18.80
2017-11-30T14:45:44.933Z,18.67
2017-11-30T14:48:14.063Z,18.58
2017-11-30T14:50:44.472Z,19.58
2017-11-30T14:53:13.854Z,18.75
2017-11-30T14:55:43.163Z,17.60
2017-11-30T14:58:12.457Z,18.92
2017-11-30T15:00:41.639Z,17.52
2017-11-30T15:03:10.793Z,19.10
2017-11-30T15:05:39.961Z,19.30
2017-11-30T15:08:10.033Z,20.25
2017-11-30T15:10:41.091Z,18.67
2017-11-30T15:13:10.343Z,19.02
2017-11-30T15:15:40.341Z,20.92
2017-11-30T15:18:10.298Z,20.35
2017-11-30T15:20:40.011Z,21.75
2017-11-30T15:23:09.128Z,20.60
2017-11-30T15:25:38.353Z,19.55
2017-11-30T15:28:07.545Z,20.83
2017-11-30T15:30:37.791Z,20.77
2017-11-30T15:33:07.047Z,20.50
2017-11-30T15:35:36.268Z,20.15
2017-11-30T15:38:05.366Z,21.80
2017-11-30T15:40:34.928Z,20.10
2017-11-30T15:43:04.058Z,19.25
2017-11-30T15:45:34.002Z,20.92
2017-11-30T15:48:04.787Z,21.50
2017-11-30T15:50:33.934Z,19.83
2017-11-30T15:53:03.864Z,20.55
2017-11-30T15:55:34.462Z,21.33
2017-11-30T15:58:03.932Z,20.85
2017-11-30T16:00:33.037Z,21.40
2017-11-30T16:03:02.263Z,21.73
2017-11-30T16:05:32.155Z,20.98
2017-11-30T16:08:01.329Z,21.30
2017-11-30T16:10:30.504Z,22.90
2017-11-30T16:12:59.597Z,18.33
2017-11-30T16:15:29.497Z,20.50
2017-11-30T16:17:58.653Z,22.15
2017-11-30T16:20:27.750Z,20.33
2017-11-30T16:22:56.848Z,20.58
2017-11-30T16:25:26.462Z,21.25
2017-11-30T16:27:55.611Z,23.08
2017-11-30T16:30:25.517Z,22.23
2017-11-30T16:32:54.772Z,21.27
2017-11-30T16:35:23.886Z,21.77
2017-11-30T16:37:53.786Z,20.05
2017-11-30T16:40:24.004Z,22.67
2017-11-30T16:42:53.885Z,24.80
2017-11-30T16:45:23.064Z,21.87
2017-11-30T16:47:53.729Z,21.45
2017-11-30T16:50:22.877Z,28.15
2017-11-30T16:52:52.015Z,21.58
2017-11-30T16:55:22.424Z,21.73
2017-11-30T16:57:51.621Z,22.27
2017-11-30T17:00:21.113Z,19.42
2017-11-30T17:02:50.811Z,22.52
2017-11-30T17:05:21.978Z,17.27
2017-11-30T17:07:52.613Z,18.15
2017-11-30T17:10:22.677Z,17.70
2017-11-30T17:12:51.936Z,16.48
2017-11-30T17:15:21.561Z,17.23
2017-11-30T17:17:51.457Z,13.75
2017-11-30T17:20:21.659Z,14.68
2017-11-30T17:22:52.311Z,15.90
2017-11-30T17:25:22.235Z,16.10
2017-11-30T17:27:51.436Z,16.48
2017-11-30T17:30:21.031Z,18.25
2017-11-30T17:32:51.704Z,17.48
2017-11-30T17:35:21.114Z,19.65
2017-11-30T17:37:50.539Z,22.85
2017-11-30T17:40:20.427Z,17.58
2017-11-30T17:42:50.187Z,17.15
2017-11-30T17:45:20.569Z,16.77
2017-11-30T17:47:49.774Z,16.35
2017-11-30T17:50:19.423Z,22.42
2017-11-30T17:52:49.319Z,16.52
2017-11-30T17:55:18.637Z,16.20
2017-11-30T17:57:48.707Z,16.40
2017-11-30T18:00:19.614Z,16.50
2017-11-30T18:02:48.782Z,15.90
2017-11-30T18:05:18.372Z,14.05
2017-11-30T18:07:47.707Z,13.88
2017-11-30T18:10:17.127Z,15.32
2017-11-30T18:12:47.062Z,15.40
2017-11-30T18:15:16.405Z,15.65
2017-11-30T18:17:46.564Z,14.98
2017-11-30T18:20:16.247Z,14.65
2017-11-30T18:22:45.543Z,14.15
2017-11-30T18:25:14.811Z,15.10
2017-11-30T18:27:44.378Z,16.15
2017-11-30T18:30:13.710Z,18.17
2017-11-30T18:32:42.877Z,17.17
2017-11-30T18:35:12.158Z,31.23
2017-11-30T18:37:42.358Z,23.85
2017-11-30T18:40:11.592Z,18.25
2017-11-30T18:42:41.392Z,20.35
2017-11-30T18:45:10.680Z,22.62
2017-11-30T18:47:40.211Z,22.10
2017-11-30T18:50:09.616Z,37.97
2017-11-30T18:52:39.735Z,30.95
2017-11-30T18:55:11.172Z,24.75
2017-11-30T18:57:40.598Z,23.45
2017-11-30T19:00:11.130Z,21.55
2017-11-30T19:02:41.054Z,18.92
2017-11-30T19:05:11.073Z,20.23
2017-11-30T19:07:40.411Z,18.00
2017-11-30T19:10:09.606Z,18.02
2017-11-30T19:12:39.824Z,19.60
2017-11-30T19:15:09.156Z,17.30
2017-11-30T19:17:38.957Z,20.40
2017-11-30T19:20:09.000Z,18.10
2017-11-30T19:22:38.382Z,18.85
2017-11-30T19:25:08.689Z,20.85
2017-11-30T19:27:37.828Z,20.08
2017-11-30T19:30:07.124Z,21.40
2017-11-30T19:32:36.704Z,20.77
2017-11-30T19:35:05.947Z,19.02
2017-11-30T19:37:36.843Z,17.20
2017-11-30T19:40:07.734Z,17.92
2017-11-30T19:42:36.878Z,17.27
2017-11-30T19:45:06.815Z,16.55
2017-11-30T19:47:36.995Z,16.27
2017-11-30T19:50:07.210Z,13.15
2017-11-30T19:52:36.331Z,15.93
2017-11-30T19:55:05.506Z,15.02
2017-11-30T19:57:34.725Z,19.52
2017-11-30T20:00:03.886Z,28.25
2017-11-30T20:02:33.449Z,33.33
2017-11-30T20:05:02.953Z,20.25
2017-11-30T20:07:33.498Z,17.60
2017-11-30T20:10:03.085Z,16.73
2017-11-30T20:12:32.210Z,17.35
2017-11-30T20:15:01.572Z,24.55
2017-11-30T20:17:31.807Z,23.00
2017-11-30T20:20:01.094Z,18.17
2017-11-30T20:22:31.155Z,21.37
2017-11-30T20:25:00.846Z,23.92
2017-11-30T20:27:30.096Z,20.80
2017-11-30T20:30:00.421Z,17.95
2017-11-30T20:32:29.609Z,17.08
2017-11-30T20:34:58.853Z,15.63
2017-11-30T20:37:28.267Z,15.82
2017-11-30T20:39:57.413Z,16.98
2017-11-30T20:42:27.909Z,16.25
2017-11-30T20:44:57.049Z,16.30
2017-11-30T20:47:27.241Z,15.43
2017-11-30T20:49:56.538Z,17.83
2017-11-30T20:52:25.836Z,16.95
2017-11-30T20:54:55.057Z,19.92
2017-11-30T20:57:24.400Z,18.17
2017-11-30T20:59:53.642Z,18.50
2017-11-30T21:02:23.082Z,20.05
2017-11-30T21:04:54.149Z,19.92
2017-11-30T21:07:24.483Z,20.02
2017-11-30T21:09:54.690Z,17.02
2017-11-30T21:12:23.871Z,20.33
2017-11-30T21:14:54.603Z,19.00
2017-11-30T21:17:23.825Z,19.62
2017-11-30T21:19:53.160Z,19.62
2017-11-30T21:22:22.658Z,18.75
2017-11-30T21:24:51.954Z,17.73
2017-11-30T21:27:21.464Z,18.15
2017-11-30T21:29:52.107Z,18.73
2017-11-30T21:32:22.352Z,18.95
2017-11-30T21:34:52.754Z,21.77
2017-11-30T21:37:22.195Z,23.25
2017-11-30T21:39:51.425Z,23.25
2017-11-30T21:42:20.771Z,27.10
2017-11-30T21:44:50.059Z,31.08
2017-11-30T21:47:19.633Z,28.52
2017-11-30T21:49:48.805Z,26.83
2017-11-30T21:52:18.697Z,28.62
2017-11-30T21:54:48.400Z,24.30
2017-11-30T21:57:19.090Z,29.30
2017-11-30T21:59:50.656Z,27.02
2017-11-30T22:02:20.110Z,24.90
2017-11-30T22:04:49.605Z,25.45
2017-11-30T22:07:19.640Z,21.30
2017-11-30T22:09:48.917Z,20.40
2017-11-30T22:12:18.520Z,21.50
2017-11-30T22:14:48.609Z,22.15
2017-11-30T22:17:17.973Z,22.13
2017-11-30T22:19:47.380Z,21.45
2017-11-30T22:22:20.387Z,21.35
2017-11-30T22:24:49.687Z,22.05
2017-11-30T22:27:18.898Z,20.27
2017-11-30T22:29:48.266Z,19.87
2017-11-30T22:32:17.564Z,18.80
2017-11-30T22:34:46.791Z,18.48
2017-11-30T22:37:16.807Z,17.77
2017-11-30T22:39:46.051Z,17.62
2017-11-30T22:42:15.477Z,17.62
2017-11-30T22:44:44.683Z,17.02
2017-11-30T22:47:14.740Z,17.25
2017-11-30T22:49:44.480Z,14.02
2017-11-30T22:52:13.928Z,12.77
2017-11-30T22:54:43.970Z,14.43
2017-11-30T22:57:14.488Z,12.73
2017-11-30T22:59:43.912Z,11.50
2017-11-30T23:02:13.971Z,12.45
2017-11-30T23:04:44.165Z,12.85
2017-11-30T23:07:14.184Z,12.85
2017-11-30T23:09:43.552Z,12.27
2017-11-30T23:12:13.224Z,10.57
2017-11-30T23:14:42.645Z,12.18
2017-11-30T23:17:12.679Z,12.95
2017-11-30T23:19:42.669Z,11.35
2017-11-30T23:22:12.267Z,13.15
2017-11-30T23:24:42.036Z,13.40
2017-11-30T23:27:11.699Z,13.00
2017-11-30T23:29:41.040Z,12.98
2017-11-30T23:32:10.369Z,13.15
2017-11-30T23:34:39.871Z,11.63
2017-11-30T23:37:09.093Z,12.48
2017-11-30T23:39:38.228Z,12.95
2017-11-30T23:42:07.493Z,13.38
2017-11-30T23:44:36.694Z,11.18
2017-11-30T23:47:06.620Z,12.48
2017-11-30T23:49:36.762Z,13.18
2017-11-30T23:52:05.892Z,11.90
2017-11-30T23:54:36.245Z,10.68
2017-11-30T23:57:05.795Z,12.45
2017-11-30T23:59:36.859Z,13.57
